Time;durP1;ratioP1;P1;durP2;ratioP2;P2;SDS_P1;SDS_P2;PMS_P1;PMS_P2;Temp;Humidity;BMP_temperature;BMP_pressure;BME280_temperature;BME280_humidity;BME280_pressure;Samples;Min_cycle;Max_cycle;Signal;HPM_P1;HPM_P2
2023/07/20 00:01:34;;;;;;;3.58;1.98;;;;;;;16.75;100.00;99755.59;5036707;28;20469;-78
2023/07/20 00:04:00;;;;;;;3.92;2.08;;;;;;;16.74;100.00;99722.31;5055118;28;20067;-77
2023/07/20 00:06:27;;;;;;;6.32;2.10;;;;;;;16.69;100.00;99742.59;5053173;28;20108;-78
2023/07/20 00:08:55;;;;;;;3.95;2.47;;;;;;;16.62;100.00;99769.97;5053191;28;20067;-79
2023/07/20 00:11:26;;;;;;;9.40;2.40;;;;;;;16.58;100.00;99786.06;5054276;28;20056;-79
2023/07/20 00:13:52;;;;;;;3.80;2.50;;;;;;;16.51;100.00;99793.97;5054335;28;20021;-79
2023/07/20 00:16:17;;;;;;;5.47;3.25;;;;;;;16.35;100.00;99797.88;5054214;28;20112;-79
2023/07/20 00:18:43;;;;;;;5.40;2.97;;;;;;;16.30;100.00;99821.03;5052935;28;20052;-78
2023/07/20 00:21:09;;;;;;;10.13;2.80;;;;;;;16.22;100.00;99825.84;5054248;28;20029;-79
2023/07/20 00:23:34;;;;;;;4.20;2.55;;;;;;;16.08;100.00;99848.81;5036237;28;20021;-78
2023/07/20 00:26:00;;;;;;;6.20;2.47;;;;;;;15.89;100.00;99841.47;5054187;28;20071;-78
2023/07/20 00:28:25;;;;;;;4.05;2.83;;;;;;;15.77;100.00;99845.78;5036329;28;20036;-78
2023/07/20 00:30:51;;;;;;;6.72;3.03;;;;;;;15.65;100.00;99840.16;5054054;28;20078;-77
2023/07/20 00:33:17;;;;;;;8.05;2.63;;;;;;;15.53;100.00;99844.44;5053907;28;20455;-78
2023/07/20 00:35:42;;;;;;;6.35;2.90;;;;;;;15.44;100.00;99844.78;5054265;28;20056;-77
2023/07/20 00:38:07;;;;;;;5.43;2.88;;;;;;;15.36;100.00;99837.28;5054021;28;20052;-78
2023/07/20 00:40:39;;;;;;;6.40;3.55;;;;;;;15.30;100.00;99854.59;5036005;28;20432;-79
2023/07/20 00:43:05;;;;;;;8.77;4.57;;;;;;;15.19;100.00;99838.22;5053873;28;20110;-78
2023/07/20 00:45:31;;;;;;;3.80;3.13;;;;;;;15.20;100.00;99822.50;5054013;28;20060;-77
2023/07/20 00:47:57;;;;;;;5.40;3.60;;;;;;;15.24;100.00;99814.34;5036181;28;20081;-77
2023/07/20 00:50:24;;;;;;;6.97;3.78;;;;;;;15.35;100.00;99809.81;5052484;28;20025;-78
2023/07/20 00:52:49;;;;;;;6.18;3.67;;;;;;;15.38;100.00;99800.88;5035804;28;20109;-79
2023/07/20 00:55:15;;;;;;;6.95;3.90;;;;;;;15.39;100.00;99793.00;5053774;28;20060;-79
2023/07/20 00:57:40;;;;;;;7.15;4.00;;;;;;;15.44;100.00;99790.06;5053431;28;20061;-77
2023/07/20 01:00:06;;;;;;;6.63;4.03;;;;;;;15.43;100.00;99788.50;5052582;28;20390;-79
2023/07/20 01:02:32;;;;;;;11.25;4.43;;;;;;;15.49;100.00;99814.38;5035433;28;20021;-78
2023/07/20 01:04:57;;;;;;;8.90;4.03;;;;;;;15.47;100.00;99817.00;5053401;28;20028;-78
2023/07/20 01:07:39;;;;;;;7.20;4.25;;;;;;;15.49;100.00;99823.78;5035645;28;20067;-79
2023/07/20 01:10:20;;;;;;;5.80;3.92;;;;;;;15.54;100.00;99814.31;5035621;28;20076;-78
2023/07/20 01:12:52;;;;;;;6.68;4.05;;;;;;;15.63;100.00;99827.59;5035279;28;20053;-78
2023/07/20 01:15:18;;;;;;;4.97;3.47;;;;;;;15.69;100.00;99836.97;5053338;28;20027;-79
2023/07/20 01:17:44;;;;;;;5.40;3.53;;;;;;;15.74;100.00;99832.47;5053392;28;20103;-80
2023/07/20 01:20:15;;;;;;;6.82;3.53;;;;;;;15.76;100.00;99833.47;5035589;28;20029;-78
2023/07/20 01:22:59;;;;;;;6.93;3.70;;;;;;;15.79;100.00;99841.06;5018826;28;20024;-79
2023/07/20 01:26:02;;;;;;;6.68;3.90;;;;;;;15.85;100.00;99833.13;5053391;28;20033;-78
2023/07/20 01:29:15;;;;;;;5.75;3.63;;;;;;;15.86;100.00;99828.91;5053428;28;20028;-78
2023/07/20 01:31:41;;;;;;;7.70;4.15;;;;;;;15.92;100.00;99820.19;4992368;28;20523;-80
2023/07/20 01:34:08;;;;;;;6.25;4.00;;;;;;;15.93;100.00;99818.88;5027600;28;20537;-77
2023/07/20 01:36:35;;;;;;;8.52;3.90;;;;;;;15.98;100.00;99806.50;5035443;28;20056;-78
2023/07/20 01:39:02;;;;;;;4.78;3.25;;;;;;;16.02;100.00;99812.75;5035327;28;20382;-79
2023/07/20 01:41:27;;;;;;;7.30;4.15;;;;;;;16.04;100.00;99807.22;5035495;28;20049;-79
2023/07/20 01:43:53;;;;;;;4.57;3.38;;;;;;;16.00;100.00;99798.09;5052873;28;20064;-79
2023/07/20 01:46:18;;;;;;;6.18;3.58;;;;;;;16.02;100.00;99806.97;5035446;28;20025;-79
2023/07/20 01:48:44;;;;;;;4.05;3.35;;;;;;;15.68;100.00;99809.47;5053417;28;20115;-78
2023/07/20 01:51:09;;;;;;;10.00;3.53;;;;;;;15.53;100.00;99809.88;5035207;28;20359;-78
2023/07/20 01:53:35;;;;;;;6.70;3.92;;;;;;;15.45;100.00;99799.50;5053143;28;20028;-77
2023/07/20 01:56:00;;;;;;;8.68;3.85;;;;;;;15.37;100.00;99795.63;5053276;28;20028;-77
2023/07/20 01:58:25;;;;;;;6.18;3.83;;;;;;;15.32;100.00;99805.13;5035073;28;20025;-78
2023/07/20 02:00:51;;;;;;;4.22;3.17;;;;;;;15.25;100.00;99804.41;5053026;28;20112;-78
2023/07/20 02:03:17;;;;;;;5.00;3.58;;;;;;;15.17;100.00;99808.38;5052777;28;20025;-79
2023/07/20 02:05:43;;;;;;;5.93;3.50;;;;;;;15.11;100.00;99813.44;5018685;28;20073;-77
2023/07/20 02:08:08;;;;;;;4.93;3.08;;;;;;;15.08;100.00;99805.84;5052849;28;20078;-79
2023/07/20 02:10:34;;;;;;;6.55;4.40;;;;;;;15.06;100.00;99808.50;5036670;28;20041;-77
2023/07/20 02:12:59;;;;;;;6.43;3.88;;;;;;;15.01;100.00;99815.88;5056599;28;20024;-79
2023/07/20 02:15:25;;;;;;;6.03;3.55;;;;;;;14.97;100.00;99817.50;5056943;28;20438;-76
2023/07/20 02:17:50;;;;;;;5.65;4.22;;;;;;;14.93;100.00;99817.75;5056902;28;20486;-77
2023/07/20 02:20:17;;;;;;;4.82;3.83;;;;;;;14.91;100.00;99813.88;5055147;28;20415;-79
2023/07/20 02:22:42;;;;;;;9.48;4.15;;;;;;;14.83;100.00;99817.31;5056944;28;20047;-78
2023/07/20 02:25:08;;;;;;;5.55;4.72;;;;;;;14.81;100.00;99824.94;5056440;28;20443;-77
2023/07/20 02:27:34;;;;;;;9.55;4.63;;;;;;;14.76;100.00;99817.13;5056277;28;20474;-77
2023/07/20 02:29:59;;;;;;;9.63;4.78;;;;;;;14.77;100.00;99830.94;5056571;28;20386;-78
2023/07/20 02:32:25;;;;;;;8.48;4.90;;;;;;;14.77;100.00;99825.19;5056333;28;20033;-78
2023/07/20 02:34:50;;;;;;;8.18;4.90;;;;;;;14.76;100.00;99820.78;5056450;28;20364;-79
2023/07/20 02:37:16;;;;;;;7.28;4.47;;;;;;;14.74;100.00;99822.63;5056359;28;20029;-76
2023/07/20 02:39:42;;;;;;;6.15;4.28;;;;;;;14.83;100.00;99828.81;5038468;28;20029;-77
2023/07/20 02:42:07;;;;;;;7.28;4.38;;;;;;;14.71;100.00;99829.44;5056067;28;20421;-77
2023/07/20 02:44:33;;;;;;;5.82;4.30;;;;;;;14.70;100.00;99830.75;5056411;28;20021;-76
2023/07/20 02:46:58;;;;;;;10.82;4.15;;;;;;;14.63;100.00;99843.59;5056266;28;20017;-79
2023/07/20 02:49:23;;;;;;;10.80;3.95;;;;;;;14.56;100.00;99832.66;5056675;28;20075;-77
2023/07/20 02:51:49;;;;;;;7.05;3.97;;;;;;;14.52;100.00;99820.66;5066140;28;20053;-78
2023/07/20 02:54:15;;;;;;;5.97;3.65;;;;;;;14.53;100.00;99825.06;5066727;28;20081;-78
2023/07/20 02:56:40;;;;;;;7.82;4.05;;;;;;;14.53;100.00;99830.81;5057901;28;20059;-77
2023/07/20 02:59:05;;;;;;;6.88;3.42;;;;;;;14.48;100.00;99825.88;5056953;28;20021;-78
2023/07/20 03:01:31;;;;;;;5.72;3.53;;;;;;;14.48;100.00;99823.00;5056621;28;20025;-80
2023/07/20 03:03:56;;;;;;;5.80;4.00;;;;;;;14.41;100.00;99815.75;5038560;28;20052;-78
2023/07/20 03:06:23;;;;;;;8.45;3.90;;;;;;;14.49;100.00;99821.69;5056118;28;20029;-78
2023/07/20 03:08:51;;;;;;;7.05;3.63;;;;;;;14.47;100.00;99814.94;5055946;28;20040;-79
2023/07/20 03:11:17;;;;;;;6.53;3.63;;;;;;;14.46;100.00;99819.13;5055391;28;20048;-79
2023/07/20 03:13:43;;;;;;;7.00;3.50;;;;;;;14.42;100.00;99820.19;5055623;28;20074;-78
2023/07/20 03:16:11;;;;;;;8.27;3.55;;;;;;;14.37;100.00;99826.75;5055517;28;20028;-76
2023/07/20 03:18:39;;;;;;;5.53;3.72;;;;;;;14.34;100.00;99829.88;5056818;28;20029;-77
2023/07/20 03:21:05;;;;;;;6.93;3.67;;;;;;;14.31;100.00;99831.75;5055653;28;20033;-78
2023/07/20 03:23:31;;;;;;;6.18;3.90;;;;;;;14.34;100.00;99827.00;5037414;28;20037;-77
2023/07/20 03:25:57;;;;;;;8.00;3.83;;;;;;;14.34;100.00;99833.53;5037514;28;20100;-77
2023/07/20 03:28:22;;;;;;;8.00;3.50;;;;;;;14.38;100.00;99834.03;5055306;28;20382;-77
2023/07/20 03:30:56;;;;;;;5.25;3.70;;;;;;;14.47;100.00;99832.19;5037436;28;20057;-77
2023/07/20 03:33:30;;;;;;;5.50;3.95;;;;;;;14.51;100.00;99835.56;5055195;28;20017;-77
2023/07/20 03:35:56;;;;;;;12.55;3.83;;;;;;;14.53;100.00;99838.69;5020766;28;20032;-77
2023/07/20 03:38:23;;;;;;;4.00;3.47;;;;;;;14.56;100.00;99846.25;5054943;28;20025;-78
2023/07/20 03:40:55;;;;;;;5.25;3.75;;;;;;;14.56;100.00;99834.75;5037611;28;20036;-77
2023/07/20 03:43:23;;;;;;;5.30;3.75;;;;;;;14.54;100.00;99826.63;5037216;28;20136;-77
2023/07/20 03:45:49;;;;;;;8.85;3.97;;;;;;;14.58;100.00;99830.03;5055731;28;20107;-77
2023/07/20 03:48:15;;;;;;;4.63;3.10;;;;;;;14.64;100.00;99832.88;5055178;28;20104;-76
2023/07/20 03:50:41;;;;;;;5.10;3.50;;;;;;;14.71;100.00;99829.44;5054816;28;20051;-76
2023/07/20 03:53:06;;;;;;;7.70;3.90;;;;;;;14.77;100.00;99830.94;5054786;28;20025;-77
2023/07/20 03:55:32;;;;;;;4.38;3.20;;;;;;;14.80;100.00;99827.03;5037073;28;20033;-78
2023/07/20 03:57:57;;;;;;;6.47;3.50;;;;;;;14.87;100.00;99830.63;5054695;28;20039;-76
2023/07/20 04:00:23;;;;;;;5.35;3.67;;;;;;;14.94;100.00;99830.84;5054518;28;20031;-78
2023/07/20 04:02:48;;;;;;;8.10;3.50;;;;;;;15.02;100.00;99834.69;5054744;28;20033;-77
2023/07/20 04:05:14;;;;;;;7.80;4.38;;;;;;;15.12;100.00;99830.16;5053674;28;20028;-77
2023/07/20 04:07:39;;;;;;;6.53;3.53;;;;;;;15.20;100.00;99836.91;5054527;28;20460;-77
2023/07/20 04:10:05;;;;;;;8.85;4.20;;;;;;;15.26;100.00;99834.75;5054742;28;20032;-79
2023/07/20 04:12:30;;;;;;;6.28;4.20;;;;;;;15.37;100.00;99836.72;5036476;28;20049;-77
2023/07/20 04:14:56;;;;;;;8.02;4.03;;;;;;;15.51;100.00;99841.31;5054586;28;20150;-77
2023/07/20 04:17:21;;;;;;;5.57;3.30;;;;;;;15.68;100.00;99841.16;5054840;28;20024;-77
2023/07/20 04:19:47;;;;;;;5.22;3.08;;;;;;;15.89;100.00;99847.22;5054362;28;20524;-77
2023/07/20 04:22:15;;;;;;;7.05;4.20;;;;;;;16.12;100.00;99839.88;5054015;28;20021;-78
2023/07/20 04:24:41;;;;;;;5.93;3.15;;;;;;;16.38;100.00;99853.69;5054277;28;20371;-80
2023/07/20 04:27:06;;;;;;;6.20;4.05;;;;;;;16.64;100.00;99839.47;5054722;28;20035;-79
2023/07/20 04:29:32;;;;;;;4.30;3.33;;;;;;;16.91;100.00;99841.13;5054326;28;20104;-79
2023/07/20 04:31:57;;;;;;;4.40;3.45;;;;;;;17.12;100.00;99835.56;5054453;28;20070;-78
2023/07/20 04:34:22;;;;;;;5.47;3.60;;;;;;;17.28;100.00;99839.50;5053964;28;20024;-81
2023/07/20 04:36:48;;;;;;;6.07;3.90;;;;;;;17.34;100.00;99838.03;5053934;28;20021;-79
2023/07/20 04:39:13;;;;;;;6.80;3.40;;;;;;;17.47;100.00;99839.44;5054080;28;20025;-79
2023/07/20 04:41:38;;;;;;;6.28;3.13;;;;;;;17.59;100.00;99832.13;5054304;28;20024;-79
2023/07/20 04:44:04;;;;;;;6.65;3.83;;;;;;;17.76;100.00;99830.47;5036129;28;20099;-79
2023/07/20 04:46:29;;;;;;;5.53;3.40;;;;;;;17.90;100.00;99837.03;5053699;28;20367;-78
2023/07/20 04:48:55;;;;;;;9.25;3.17;;;;;;;17.91;100.00;99826.25;5053947;28;20072;-79
2023/07/20 04:51:20;;;;;;;7.78;3.53;;;;;;;17.99;100.00;99842.38;5052411;28;20029;-79
2023/07/20 04:53:49;;;;;;;13.05;3.38;;;;;;;18.01;100.00;99838.94;5054034;28;20493;-79
2023/07/20 04:56:14;;;;;;;11.30;4.07;;;;;;;18.13;100.00;99843.91;5053924;28;20050;-79
2023/07/20 04:58:39;;;;;;;7.35;3.80;;;;;;;18.33;100.00;99850.38;5054050;28;20489;-79
2023/07/20 05:01:05;;;;;;;9.15;3.17;;;;;;;18.48;100.00;99847.69;5036130;28;20104;-78
2023/07/20 05:03:30;;;;;;;6.40;3.30;;;;;;;18.63;100.00;99854.44;5053536;28;20043;-80
2023/07/20 05:05:56;;;;;;;9.50;3.15;;;;;;;18.81;100.00;99860.66;5019181;28;20024;-80
2023/07/20 05:08:24;;;;;;;5.32;3.55;;;;;;;18.92;100.00;99858.25;5054013;28;20253;-78
2023/07/20 05:10:50;;;;;;;7.68;3.70;;;;;;;19.01;100.00;99848.31;5053356;28;20498;-80
2023/07/20 05:13:16;;;;;;;7.65;3.88;;;;;;;19.14;100.00;99859.88;5053485;28;20088;-79
2023/07/20 05:15:41;;;;;;;5.10;3.33;;;;;;;19.22;100.00;99862.81;5035734;28;20522;-79
2023/07/20 05:18:08;;;;;;;6.05;3.30;;;;;;;19.20;100.00;99866.31;5035699;28;20045;-79
2023/07/20 05:20:37;;;;;;;6.53;3.63;;;;;;;19.16;100.00;99879.59;5053323;28;20032;-78
2023/07/20 05:23:02;;;;;;;5.90;3.55;;;;;;;19.02;100.00;99873.81;5053765;28;20036;-81
2023/07/20 05:25:28;;;;;;;8.45;3.97;;;;;;;18.77;100.00;99878.34;5053497;28;20075;-82
2023/07/20 05:27:55;;;;;;;6.85;3.45;;;;;;;18.69;100.00;99877.47;5035637;28;20029;-80
2023/07/20 05:30:20;;;;;;;7.50;3.63;;;;;;;18.72;100.00;99879.28;5053590;28;20036;-79
2023/07/20 05:32:50;;;;;;;12.82;4.00;;;;;;;18.75;100.00;99874.47;5053674;28;20024;-77
2023/07/20 05:35:17;;;;;;;6.95;3.97;;;;;;;18.83;100.00;99879.00;5053313;28;20029;-75
2023/07/20 05:37:43;;;;;;;12.43;4.15;;;;;;;18.86;100.00;99882.91;5053410;28;20104;-76
2023/07/20 05:40:11;;;;;;;8.30;4.50;;;;;;;19.00;100.00;99893.88;5035412;28;20056;-78
2023/07/20 05:42:37;;;;;;;17.33;4.10;;;;;;;19.04;100.00;99885.63;5052994;28;20086;-77
2023/07/20 05:45:02;;;;;;;12.43;4.80;;;;;;;19.06;100.00;99885.84;5053965;28;20033;-79
2023/07/20 05:47:29;;;;;;;8.10;4.20;;;;;;;19.20;100.00;99892.38;5057370;28;20029;-77
2023/07/20 05:49:54;;;;;;;9.57;3.78;;;;;;;19.30;100.00;99890.56;5057472;28;20029;-76
2023/07/20 05:52:19;;;;;;;9.93;4.28;;;;;;;19.47;100.00;99888.00;5057242;28;20024;-78
2023/07/20 05:54:45;;;;;;;5.38;4.47;;;;;;;19.68;100.00;99879.28;5057197;28;20055;-77
2023/07/20 05:57:10;;;;;;;6.63;4.93;;;;;;;19.80;100.00;99880.56;5057334;28;20458;-76
2023/07/20 05:59:36;;;;;;;5.95;4.53;;;;;;;19.73;100.00;99871.78;5055769;28;20029;-76
2023/07/20 06:02:02;;;;;;;8.98;4.53;;;;;;;19.67;100.00;99871.94;5039101;28;20036;-77
2023/07/20 06:04:27;;;;;;;10.35;4.75;;;;;;;19.73;100.00;99869.66;5056799;28;20366;-76
2023/07/20 06:06:52;;;;;;;10.77;5.05;;;;;;;19.63;100.00;99880.22;5057186;28;20021;-75
2023/07/20 06:09:18;;;;;;;11.75;5.13;;;;;;;19.66;100.00;99887.03;5056911;28;20406;-75
2023/07/20 06:11:44;;;;;;;8.05;4.82;;;;;;;19.87;100.00;99884.84;5056709;28;20102;-76
2023/07/20 06:14:09;;;;;;;11.00;5.70;;;;;;;20.13;100.00;99889.72;5056884;28;20025;-78
2023/07/20 06:16:35;;;;;;;7.78;4.78;;;;;;;20.39;100.00;99890.28;5038852;28;20116;-77
2023/07/20 06:19:00;;;;;;;7.88;4.95;;;;;;;21.01;100.00;99886.28;5038705;28;20119;-74
2023/07/20 06:21:26;;;;;;;10.48;5.72;;;;;;;21.74;100.00;99886.78;5039170;28;20029;-77
2023/07/20 06:23:51;;;;;;;9.60;5.47;;;;;;;22.41;100.00;99885.97;5056672;28;20521;-76
2023/07/20 06:26:17;;;;;;;10.60;5.22;;;;;;;22.92;100.00;99885.56;5056904;28;20506;-76
2023/07/20 06:28:42;;;;;;;11.23;5.55;;;;;;;23.12;100.00;99880.81;5056318;28;20031;-78
2023/07/20 06:31:07;;;;;;;8.90;4.95;;;;;;;23.05;100.00;99880.88;5053720;28;20386;-76
2023/07/20 06:33:34;;;;;;;9.88;5.00;;;;;;;22.89;100.00;99888.91;5055212;28;20482;-76
2023/07/20 06:36:00;;;;;;;9.88;5.07;;;;;;;22.69;100.00;99893.63;5055621;28;20056;-74
2023/07/20 06:38:25;;;;;;;7.45;4.93;;;;;;;22.57;100.00;99897.56;5055467;28;20056;-75
2023/07/20 06:40:51;;;;;;;8.15;4.70;;;;;;;22.47;100.00;99894.50;5055583;28;20482;-76
2023/07/20 06:43:16;;;;;;;5.80;3.78;;;;;;;22.75;100.00;99897.09;5054706;28;20037;-75
2023/07/20 06:45:42;;;;;;;8.65;4.22;;;;;;;23.55;100.00;99899.25;5055248;28;20548;-83
2023/07/20 06:48:08;;;;;;;6.88;3.85;;;;;;;24.38;100.00;99886.81;5037513;28;20039;-81
2023/07/20 06:50:33;;;;;;;12.25;4.50;;;;;;;24.98;100.00;99897.03;5021254;28;20056;-81
2023/07/20 06:52:59;;;;;;;7.00;3.95;;;;;;;25.06;100.00;99891.06;5055307;28;20017;-82
2023/07/20 06:55:25;;;;;;;7.18;4.28;;;;;;;24.99;100.00;99895.63;5055479;28;20041;-82
2023/07/20 06:57:51;;;;;;;12.65;4.68;;;;;;;24.61;100.00;99890.25;5055711;28;20032;-83
2023/07/20 07:00:17;;;;;;;6.18;3.97;;;;;;;24.29;100.00;99889.66;5054692;28;20382;-82
2023/07/20 07:02:42;;;;;;;10.90;3.80;;;;;;;24.14;100.00;99890.56;5055212;28;20148;-81
2023/07/20 07:05:08;;;;;;;7.03;3.88;;;;;;;24.51;100.00;99883.56;5055301;28;20048;-81
2023/07/20 07:07:33;;;;;;;8.20;3.72;;;;;;;25.14;100.00;99879.25;5064821;28;20049;-79
2023/07/20 07:10:00;;;;;;;8.27;4.03;;;;;;;26.10;100.00;99895.13;5067821;28;20037;-81
2023/07/20 07:12:26;;;;;;;5.53;3.42;;;;;;;26.95;100.00;99904.66;5067673;28;20041;-83
2023/07/20 07:14:52;;;;;;;8.23;3.60;;;;;;;27.65;100.00;99902.50;5059878;28;20582;-82
2023/07/20 07:17:17;;;;;;;6.68;3.65;;;;;;;28.43;94.08;99903.63;5062558;28;20036;-84
2023/07/20 07:19:44;;;;;;;13.52;4.75;;;;;;;29.18;88.63;99902.88;5059855;28;20039;-83
2023/07/20 07:22:09;;;;;;;11.48;4.18;;;;;;;30.11;89.00;99889.06;5059871;28;20033;-82
2023/07/20 07:24:35;;;;;;;4.00;3.13;;;;;;;30.99;83.60;99898.09;5055777;28;20041;-83
2023/07/20 07:27:01;;;;;;;9.80;3.70;;;;;;;31.34;71.69;99906.78;5050068;28;20037;-82
2023/07/20 07:29:27;;;;;;;6.35;3.65;;;;;;;31.19;67.54;99907.38;5054571;28;20501;-83
2023/07/20 07:31:52;;;;;;;9.90;3.45;;;;;;;30.68;67.27;99912.44;5054844;28;20040;-82
2023/07/20 07:34:17;;;;;;;6.40;2.80;;;;;;;29.99;70.77;99914.03;5054874;28;20037;-83
2023/07/20 07:36:43;;;;;;;7.47;3.72;;;;;;;29.11;74.99;99906.81;5055206;28;20036;-83
2023/07/20 07:39:09;;;;;;;5.43;3.13;;;;;;;28.42;79.10;99908.75;5054333;28;20033;-82
2023/07/20 07:41:35;;;;;;;3.38;2.85;;;;;;;27.87;81.75;99907.03;5046553;28;20037;-83
2023/07/20 07:44:00;;;;;;;8.73;3.25;;;;;;;27.79;84.53;99903.50;5050984;28;20029;-81
2023/07/20 07:46:25;;;;;;;8.23;3.47;;;;;;;27.91;85.34;99901.47;5055806;28;20029;-86
2023/07/20 07:48:51;;;;;;;5.97;3.83;;;;;;;28.18;86.01;99895.28;5057064;28;20051;-86
2023/07/20 07:51:16;;;;;;;6.65;3.55;;;;;;;28.38;85.03;99896.72;5055914;28;20072;-86
2023/07/20 07:53:42;;;;;;;4.97;3.15;;;;;;;28.59;82.48;99901.81;5056243;28;20036;-86
2023/07/20 07:56:08;;;;;;;13.32;4.07;;;;;;;28.53;78.39;99907.31;5056120;28;20060;-85
2023/07/20 07:58:34;;;;;;;12.07;3.45;;;;;;;28.19;77.53;99911.53;5055459;28;20064;-86
2023/07/20 08:00:59;;;;;;;5.43;3.05;;;;;;;27.49;80.34;99913.81;5053606;28;20094;-83
2023/07/20 08:03:26;;;;;;;4.53;3.05;;;;;;;26.44;85.29;99902.91;5054660;28;20067;-85
2023/07/20 08:05:54;;;;;;;4.43;2.60;;;;;;;25.62;92.05;99903.75;5054605;28;20491;-81
2023/07/20 08:08:22;;;;;;;5.10;2.92;;;;;;;25.36;98.64;99895.72;5053397;28;20029;-82
2023/07/20 08:10:47;;;;;;;9.75;2.92;;;;;;;25.80;100.00;99898.56;5053321;28;20040;-82
2023/07/20 08:13:16;;;;;;;5.95;3.03;;;;;;;26.64;98.00;99903.69;5054072;28;20063;-82
2023/07/20 08:15:49;;;;;;;2.72;2.28;;;;;;;27.02;90.11;99905.84;5052190;28;20033;-81
2023/07/20 08:18:14;;;;;;;3.35;2.22;;;;;;;27.47;90.29;99907.03;5052973;28;20602;-84
2023/07/20 08:20:44;;;;;;;3.17;2.55;;;;;;;28.13;86.65;99910.31;5053658;28;20115;-83
2023/07/20 08:23:09;;;;;;;4.75;2.47;;;;;;;28.85;80.23;99909.50;5020268;28;20032;-82
2023/07/20 08:25:39;;;;;;;7.90;3.03;;;;;;;29.49;77.25;99915.22;5019103;28;20033;-82
2023/07/20 08:28:06;;;;;;;3.47;2.22;;;;;;;29.81;71.22;99921.72;5053480;28;20532;-83
2023/07/20 08:30:42;;;;;;;4.88;2.53;;;;;;;29.62;66.84;99914.66;5054610;28;20112;-85
2023/07/20 08:33:10;;;;;;;5.93;2.45;;;;;;;29.04;66.47;99928.41;5054304;28;20016;-83
2023/07/20 08:35:36;;;;;;;4.40;2.33;;;;;;;28.11;69.28;99922.69;5036129;28;20041;-81
2023/07/20 08:38:07;;;;;;;5.50;1.92;;;;;;;27.07;74.18;99923.16;5054311;28;20474;-81
2023/07/20 08:40:33;;;;;;;4.22;2.05;;;;;;;26.00;81.33;99911.88;5036344;28;20033;-80
2023/07/20 08:43:02;;;;;;;3.13;2.30;;;;;;;25.11;91.92;99907.59;5042311;28;20037;-84
2023/07/20 08:45:29;;;;;;;3.88;2.60;;;;;;;24.18;99.20;99902.59;5052726;28;20040;-83
2023/07/20 08:47:56;;;;;;;3.95;2.60;;;;;;;23.84;100.00;99903.28;5052718;28;20040;-82
2023/07/20 08:50:22;;;;;;;4.20;2.92;;;;;;;24.01;100.00;99905.47;5052593;28;20033;-80
2023/07/20 08:52:52;;;;;;;6.18;2.60;;;;;;;24.52;100.00;99904.78;5053918;28;20124;-82
2023/07/20 08:55:20;;;;;;;2.97;2.67;;;;;;;25.18;100.00;99906.72;5053742;28;20434;-81
2023/07/20 08:57:51;;;;;;;8.90;2.53;;;;;;;26.14;99.23;99909.31;5052306;28;20047;-85
2023/07/20 09:00:17;;;;;;;;;;;;;;;27.20;88.58;99907.25;5042958;28;20102;-78
2023/07/20 09:02:45;;;;;;;3.25;2.38;;;;;;;27.75;79.92;99923.75;5019026;28;19951;-78
2023/07/20 09:05:14;;;;;;;2.63;2.00;;;;;;;28.00;74.26;99920.44;5053055;28;20055;-78
2023/07/20 09:07:40;;;;;;;2.45;1.75;;;;;;;27.89;69.17;99927.00;5053558;28;20032;-77
2023/07/20 09:10:28;;;;;;;4.65;2.20;;;;;;;27.60;72.02;99935.91;5035199;28;20033;-78
2023/07/20 09:12:53;;;;;;;3.47;2.35;;;;;;;27.29;71.71;99926.97;5052614;28;20041;-79
2023/07/20 09:15:19;;;;;;;3.33;1.92;;;;;;;27.14;80.97;99921.44;5053175;28;20101;-79
2023/07/20 09:17:50;;;;;;;2.80;1.88;;;;;;;27.40;74.65;99920.50;5035242;28;20051;-80
2023/07/20 09:20:18;;;;;;;4.17;3.03;;;;;;;27.38;73.59;99925.44;5033788;28;20471;-80
2023/07/20 09:22:44;;;;;;;5.43;2.20;;;;;;;27.24;81.53;99915.56;5053477;28;20100;-79
2023/07/20 09:25:14;;;;;;;3.53;2.08;;;;;;;26.10;96.86;99918.56;5018815;28;20553;-81
2023/07/20 09:27:46;;;;;;;3.15;1.95;;;;;;;25.62;100.00;99914.69;5053617;28;20482;-80
2023/07/20 09:30:13;;;;;;;;;;;;;;;25.57;100.00;99910.66;5053682;28;20483;-78
2023/07/20 09:32:47;;;;;;;4.18;1.42;;;;;;;25.81;87.22;99914.75;5035831;28;20392;-79
2023/07/20 09:35:15;;;;;;;1.60;1.50;;;;;;;25.66;79.37;99918.69;5035468;28;20079;-81
2023/07/20 09:37:46;;;;;;;2.13;1.65;;;;;;;25.55;84.29;99912.63;5051998;28;20044;-80
2023/07/20 09:40:11;;;;;;;;;;;;;;;25.78;89.10;99904.25;5053619;28;20163;-79
2023/07/20 09:42:37;;;;;;;2.10;1.90;;;;;;;26.21;86.12;99900.41;5036171;28;19999;-78
2023/07/20 09:45:08;;;;;;;4.15;1.75;;;;;;;26.66;85.68;99906.78;5035873;28;20267;-80
2023/07/20 09:47:38;;;;;;;3.83;1.90;;;;;;;26.77;76.38;99912.81;5053468;28;20409;-79
2023/07/20 09:50:21;;;;;;;2.28;2.00;;;;;;;26.63;77.38;99913.88;5053492;28;20035;-81
2023/07/20 09:52:47;;;;;;;2.10;1.30;;;;;;;26.64;76.71;99889.81;5035895;28;20485;-80
2023/07/20 09:55:13;;;;;;;2.35;1.40;;;;;;;26.72;74.02;99899.25;5051889;28;20505;-79
2023/07/20 09:57:40;;;;;;;1.30;1.20;;;;;;;26.80;75.19;99910.06;5052742;28;20043;-80
2023/07/20 10:00:16;;;;;;;1.60;1.50;;;;;;;26.68;73.14;99904.78;5052885;28;20107;-80
2023/07/20 10:02:54;;;;;;;1.00;1.00;;;;;;;26.52;62.55;99923.25;5053201;28;20029;-78
2023/07/20 10:05:20;;;;;;;1.30;1.20;;;;;;;26.45;62.89;99915.41;5035401;28;20111;-80
2023/07/20 10:07:50;;;;;;;1.60;1.20;;;;;;;26.49;64.96;99912.78;5035403;28;20112;-79
2023/07/20 10:10:18;;;;;;;1.83;1.20;;;;;;;26.62;62.04;99915.25;5035097;28;20036;-80
2023/07/20 10:12:46;;;;;;;2.85;1.10;;;;;;;26.57;61.80;99908.31;5034858;28;20079;-79
2023/07/20 10:15:20;;;;;;;1.73;1.10;;;;;;;26.52;68.19;99896.88;5034990;28;20033;-80
2023/07/20 10:18:09;;;;;;;3.78;1.27;;;;;;;26.52;66.21;99891.03;5053098;28;20045;-80
2023/07/20 10:20:37;;;;;;;1.42;1.00;;;;;;;26.50;61.14;99893.81;5034958;28;20033;-79
2023/07/20 10:23:05;;;;;;;3.25;1.30;;;;;;;26.17;58.08;99905.19;5035088;28;20036;-79
2023/07/20 10:25:41;;;;;;;4.00;1.48;;;;;;;25.89;66.77;99889.03;5034981;28;20038;-79
2023/07/20 10:28:07;;;;;;;3.45;1.20;;;;;;;25.61;72.91;99875.06;5034976;28;20025;-81
2023/07/20 10:30:34;;;;;;;2.90;1.35;;;;;;;25.52;72.96;99885.38;5052842;28;20025;-80
2023/07/20 10:33:02;;;;;;;3.53;1.13;;;;;;;25.75;76.41;99876.22;5056610;28;20032;-80
2023/07/20 10:35:55;;;;;;;2.00;1.35;;;;;;;26.11;70.58;99881.25;5039642;28;20037;-80
2023/07/20 10:38:46;;;;;;;2.30;1.30;;;;;;;26.05;65.34;99892.47;5055181;28;20540;-78
2023/07/20 10:41:35;;;;;;;5.10;1.70;;;;;;;25.73;62.19;99884.81;5054977;28;20056;-79
2023/07/20 10:44:09;;;;;;;1.23;1.10;;;;;;;25.42;67.48;99873.59;5056517;28;20100;-78
2023/07/20 10:46:46;;;;;;;1.02;0.93;;;;;;;25.47;71.34;99866.69;5038489;28;20036;-79
2023/07/20 10:49:12;;;;;;;4.47;1.60;;;;;;;25.47;72.89;99852.06;5022016;28;20037;-79
2023/07/20 10:51:40;;;;;;;2.55;1.48;;;;;;;25.84;72.15;99873.31;5038429;28;20123;-79
2023/07/20 10:54:32;;;;;;;2.38;1.10;;;;;;;26.01;65.16;99880.44;5022255;28;20451;-79
2023/07/20 10:56:58;;;;;;;;;;;;;;;26.04;71.64;99871.19;5049469;28;20052;-79
2023/07/20 10:59:26;;;;;;;3.65;1.20;;;;;;;26.23;67.25;99874.19;5038253;28;19912;-77
2023/07/20 11:01:59;;;;;;;2.65;1.40;;;;;;;26.32;60.93;99881.44;5038031;28;20035;-80
2023/07/20 11:04:45;;;;;;;1.95;1.00;;;;;;;26.01;58.38;99881.22;5038522;28;20150;-79
2023/07/20 11:07:39;;;;;;;1.73;1.02;;;;;;;25.63;61.13;99876.00;5038525;28;20126;-78
2023/07/20 11:10:14;;;;;;;1.95;1.33;;;;;;;25.32;64.36;99878.63;5048045;28;20432;-79
2023/07/20 11:13:32;;;;;;;2.63;1.27;;;;;;;25.06;70.60;99864.75;5055413;28;20052;-79
2023/07/20 11:16:02;;;;;;;7.82;1.52;;;;;;;24.63;75.11;99860.44;5046792;28;20033;-80
2023/07/20 11:18:27;;;;;;;1.73;1.50;;;;;;;24.45;74.46;99853.03;5055625;28;20363;-79
2023/07/20 11:20:54;;;;;;;5.15;1.70;;;;;;;24.20;75.31;99853.88;5021292;28;20093;-79
2023/07/20 11:23:21;;;;;;;1.65;1.55;;;;;;;24.24;78.16;99844.72;5021542;28;20036;-80
2023/07/20 11:25:49;;;;;;;5.05;2.13;;;;;;;24.19;79.19;99842.81;5037920;28;20040;-80
2023/07/20 11:28:15;;;;;;;6.22;2.30;;;;;;;24.42;85.90;99843.34;5037954;28;20036;-79
2023/07/20 11:30:42;;;;;;;3.03;1.60;;;;;;;24.66;80.61;99844.59;5037724;28;20032;-78
2023/07/20 11:33:11;;;;;;;11.23;2.63;;;;;;;24.81;71.26;99858.25;5037886;28;20397;-80